Terminal Aerodrome Forecast
Issued by NWS

Home | Current Version | Previous Version | Text Only | Print | Product List | Glossary On
Versions: 1 2 3 4 5 6 7 8 9 10 11 12 13 14 15 16 17
000
FTUS44 KJAN 010540
TAFGTR
TAF
KGTR 010540Z 0106/0206 16005KT P6SM BKN040
     FM010800 16005KT P6SM VCSH BKN015 OVC025
     FM011100 19006KT P6SM VCTS BKN007CB OVC015
     FM011700 18009KT P6SM VCSH OVC025
     FM011900 19007KT P6SM BKN050=

USA.gov is the U.S. government's official web portal to all federal, state and local government web resources and services.